Current | Forecast
Updated: 9:00 PM JST on May 25, 2017
Observed at Sendai Airport, Japan
Temperature 61°F
Humidity 94%
Dew Point 59°F
Wind WSW at 4 mph
Pressure 29.74 in (Steady)
Conditions Mostly Cloudy
Visibility 5.0 miles
UV 0 out of 16
Clouds (FEW) : 500 ft
Scattered Clouds (SCT) : 1000 ft
Mostly Cloudy (BKN) : 2000 ft
Yesterday's Maximum 70°F
Yesterday's Minimum 64°F approx.
Yesterday's Cooling Degree Days 2 approx.
Sunrise4:21 AM JST
Sunset6:49 PM JST
Moon Rise4:00 AM JST
Moon Set5:59 PM JST
Moon PhaseMoon Phase
Waning Crescent
Raw METARMETAR RJSS 251200Z 24003KT 8000 FEW005 SCT010 BKN020 16/15 Q1007


Monday
. High: 84° F.
Tuesday
. High: 84° F.
Wednesday
. High: 75° F.
Thursday
. High: 82° F.
Friday
. High: 86° F.
Saturday
. High: 77° F.
Sunday
. High: 75° F.
Monday
. High: 73° F.

Units: English | Metric

Find the Weather for any City, State or Zipcode, or Country:

U.S. State List | Severe Weather | Tropical Storms | Ski Conditions
United States | Canada | Central America | South America | Asia | Europe | Australia | Africa | Islands

Weather Underground

© Copyright 2017
The Weather Company, LLC